Portada
METAR-TAF:

METAR-TAF

Aeroports :

Alta Floresta, Mato Grosso, Brasil

latitud: 09-52S, longitud: 056-06W, altitud: 288 m

Observació

L'informe es va fer fa 12 hores i 3 minuts, a les 20:00 UTC
Vent 5 kt del Sud
Temperatura 35°C
Humitat 20%
Pressió 1014 hPa
Visibilitat 10 km o més
sense núvols per sota de 1500 mi sense presència de cumulonimbus.

METAR: SBAT 222000Z 17005KT CAVOK 35/09 Q1014

Hora: 04:03 (08:03 UTC)

Pronòstic

L'informe es va fer fa 4 hores i 8 minuts, a les 03:55 UTC
Pronòstic vàlid del 23 a les 06 UTC al 23 a les 18 UTC
Vent 2 kt del Sud/Sud-Est
Visibilitat 10 km o més
sense núvols per sota de 1500 mi sense presència de cumulonimbus.
Evolucionant progressivament
l' 23 a les 12 UTC al 23 a les 14 UTC
Vent 12 kt del Sud-Est

TAF: SBAT 230355Z 2306/2318 15002KT CAVOK TN23/2311Z TX36/2318Z BECMG 2312/2314 13012KT RMK PHI

Observacions i pronòstics meteorològics de més de 4000 aeroports (METAR i TAF).

Les estacions disponibles són els punts grocs i vermells al mapa.

Posi el ratolí al punt desitjat per veure el nom de l'estació.

Feu clic per veure les observacions i els pronòstics meteorològics.

Per canviar el mapa: feu clic els botons verds amb una creu de color negre per apropar; al botó verd amb un guió per allunyar la imatge; o en les fletxes verdes per a mapes adjacents.


METAR-TAF: